createdAt,value
2023-04-06T00:00:32.903Z,100518.88
2023-04-06T00:02:59.931Z,100515.66
2023-04-06T00:05:33.920Z,100505.13
2023-04-06T00:08:00.735Z,100509.13
2023-04-06T00:10:30.538Z,100504.63
2023-04-06T00:12:58.406Z,100501.22
2023-04-06T00:15:25.550Z,100506.81
2023-04-06T00:17:57.677Z,100506.72
2023-04-06T00:20:26.760Z,100497.69
2023-04-06T00:22:53.439Z,100499.25
2023-04-06T00:25:20.557Z,100499.00
2023-04-06T00:27:47.291Z,100499.81
2023-04-06T00:30:16.675Z,100492.63
2023-04-06T00:32:45.713Z,100496.66
2023-04-06T00:35:12.508Z,100487.22
2023-04-06T00:37:44.053Z,100486.38
2023-04-06T00:40:13.681Z,100488.56
2023-04-06T00:42:40.647Z,100483.94
2023-04-06T00:45:07.731Z,100490.06
2023-04-06T00:47:34.621Z,100486.16
2023-04-06T00:50:01.276Z,100480.38
2023-04-06T00:52:27.915Z,100483.47
2023-04-06T00:54:55.076Z,100479.53
2023-04-06T00:57:22.976Z,100478.81
2023-04-06T00:59:57.213Z,100485.75
2023-04-06T01:02:27.105Z,100490.50
2023-04-06T01:04:55.508Z,100484.50
2023-04-06T01:07:28.017Z,100488.13
2023-04-06T01:10:23.679Z,100493.06
2023-04-06T01:12:55.464Z,100496.25
2023-04-06T01:15:41.042Z,100489.34
2023-04-06T01:18:12.991Z,100496.06
2023-04-06T01:20:46.941Z,100489.78
2023-04-06T01:23:15.691Z,100491.53
2023-04-06T01:25:46.503Z,100485.09
2023-04-06T01:28:15.499Z,100490.03
2023-04-06T01:30:53.060Z,100489.16
2023-04-06T01:33:38.752Z,100485.78
2023-04-06T01:36:11.461Z,100490.94
2023-04-06T01:38:40.868Z,100483.91
2023-04-06T01:41:08.216Z,100478.44
2023-04-06T01:43:46.449Z,100486.84
2023-04-06T01:46:14.295Z,100480.84
2023-04-06T01:48:43.295Z,100482.13
2023-04-06T01:51:44.763Z,100484.69
2023-04-06T01:54:13.801Z,100477.97
2023-04-06T01:56:54.221Z,100476.09
2023-04-06T01:59:43.665Z,100473.94
2023-04-06T02:02:18.664Z,100475.13
2023-04-06T02:04:54.567Z,100473.72
2023-04-06T02:07:21.362Z,100470.28
2023-04-06T02:09:48.069Z,100468.94
2023-04-06T02:12:25.011Z,100465.56
2023-04-06T02:14:52.185Z,100459.16
2023-04-06T02:17:18.933Z,100465.16
2023-04-06T02:19:46.579Z,100458.47
2023-04-06T02:22:13.268Z,100455.22
2023-04-06T02:24:40.016Z,100456.78
2023-04-06T02:27:07.118Z,100455.22
2023-04-06T02:29:34.183Z,100444.16
2023-04-06T02:32:03.791Z,100447.41
2023-04-06T02:34:33.306Z,100450.19
2023-04-06T02:37:00.494Z,100454.34
2023-04-06T02:39:30.442Z,100442.09
2023-04-06T02:42:01.024Z,100452.25
2023-04-06T02:44:27.699Z,100446.66
2023-04-06T02:46:54.326Z,100448.22
2023-04-06T02:49:25.191Z,100442.69
2023-04-06T02:51:55.675Z,100438.84
2023-04-06T02:54:26.696Z,100441.69
2023-04-06T02:56:53.730Z,100435.38
2023-04-06T02:59:28.195Z,100445.03
2023-04-06T03:02:06.414Z,100438.53
2023-04-06T03:04:36.439Z,100437.34
2023-04-06T03:07:06.370Z,100438.94
2023-04-06T03:09:38.285Z,100426.69
2023-04-06T03:12:05.703Z,100441.69
2023-04-06T03:14:42.417Z,100439.91
2023-04-06T03:17:09.106Z,100443.28
2023-04-06T03:19:38.679Z,100439.50
2023-04-06T03:22:08.452Z,100441.31
2023-04-06T03:24:35.795Z,100440.22
2023-04-06T03:27:02.565Z,100441.50
2023-04-06T03:29:29.469Z,100442.88
2023-04-06T03:31:56.184Z,100449.56
2023-04-06T03:34:39.792Z,100445.81
2023-04-06T03:37:11.195Z,100450.53
2023-04-06T03:39:45.293Z,100446.78
2023-04-06T03:42:17.592Z,100444.56
2023-04-06T03:44:53.974Z,100449.03
2023-04-06T03:47:23.967Z,100447.75
2023-04-06T03:49:54.160Z,100440.00
2023-04-06T03:52:24.184Z,100447.59
2023-04-06T03:54:54.733Z,100445.34
2023-04-06T03:57:21.813Z,100438.94
2023-04-06T03:59:48.529Z,100435.94
2023-04-06T04:02:18.159Z,100438.69
2023-04-06T04:04:44.918Z,100444.00
2023-04-06T04:07:14.070Z,100438.97
2023-04-06T04:09:43.064Z,100434.13
2023-04-06T04:12:09.748Z,100429.22
2023-04-06T04:14:36.463Z,100434.44
2023-04-06T04:17:05.966Z,100424.91
2023-04-06T04:19:33.015Z,100431.00
2023-04-06T04:22:05.985Z,100425.75
2023-04-06T04:24:35.298Z,100425.66
2023-04-06T04:27:05.814Z,100424.88
2023-04-06T04:29:36.852Z,100424.47
2023-04-06T04:32:07.589Z,100419.38
2023-04-06T04:34:34.501Z,100423.44
2023-04-06T04:37:02.204Z,100418.53
2023-04-06T04:39:46.364Z,100421.16
2023-04-06T04:42:13.532Z,100420.56
2023-04-06T04:44:45.757Z,100412.50
2023-04-06T04:47:14.266Z,100407.56
2023-04-06T04:49:45.280Z,100410.53
2023-04-06T04:52:16.943Z,100412.41
2023-04-06T04:55:06.276Z,100421.09
2023-04-06T04:57:35.301Z,100421.00
2023-04-06T05:00:05.316Z,100420.00
2023-04-06T05:02:33.024Z,100417.94
2023-04-06T05:05:26.094Z,100419.91
2023-04-06T05:07:52.970Z,100417.06
2023-04-06T05:10:38.372Z,100404.22
2023-04-06T05:13:05.587Z,100405.63
2023-04-06T05:15:35.727Z,100399.88
2023-04-06T05:18:12.657Z,100394.63
2023-04-06T05:20:39.947Z,100386.28
2023-04-06T05:23:06.819Z,100381.63
2023-04-06T05:25:34.797Z,100377.19
2023-04-06T05:28:11.804Z,100382.25
2023-04-06T05:30:39.458Z,100376.28
2023-04-06T05:33:06.625Z,100382.22
2023-04-06T05:35:48.911Z,100375.34
2023-04-06T05:38:16.213Z,100370.16
2023-04-06T05:40:48.487Z,100365.28
2023-04-06T05:43:18.239Z,100365.44
2023-04-06T05:45:51.803Z,100361.91
2023-04-06T05:48:21.316Z,100360.69
2023-04-06T05:50:50.546Z,100360.31
2023-04-06T05:53:22.213Z,100353.75
2023-04-06T05:55:57.109Z,100362.25
2023-04-06T05:58:26.792Z,100364.72
2023-04-06T06:00:58.908Z,100356.31
2023-04-06T06:03:29.718Z,100358.50
2023-04-06T06:06:01.648Z,100358.88
2023-04-06T06:08:36.227Z,100350.91
2023-04-06T06:11:07.067Z,100350.19
2023-04-06T06:13:37.819Z,100345.59
2023-04-06T06:16:06.345Z,100349.97
2023-04-06T06:18:38.979Z,100343.84
2023-04-06T06:21:06.349Z,100346.78
2023-04-06T06:23:33.002Z,100339.88
2023-04-06T06:26:00.418Z,100335.34
2023-04-06T06:28:27.984Z,100333.31
2023-04-06T06:30:56.995Z,100332.34
2023-04-06T06:33:25.072Z,100332.16
2023-04-06T06:35:53.947Z,100327.69
2023-04-06T06:38:22.174Z,100323.00
2023-04-06T06:40:50.681Z,100325.81
2023-04-06T06:43:21.060Z,100326.75
2023-04-06T06:45:56.714Z,100310.47
2023-04-06T06:48:23.524Z,100317.94
2023-04-06T06:50:52.983Z,100316.69
2023-04-06T06:53:24.263Z,100312.63
2023-04-06T06:55:51.007Z,100319.63
2023-04-06T06:58:22.742Z,100313.75
2023-04-06T07:00:49.490Z,100312.31
2023-04-06T07:03:16.948Z,100308.03
2023-04-06T07:05:54.127Z,100316.25
2023-04-06T07:08:24.887Z,100312.06
2023-04-06T07:10:53.429Z,100308.53
2023-04-06T07:13:24.344Z,100309.75
2023-04-06T07:15:53.560Z,100306.44
2023-04-06T07:18:20.917Z,100306.44
2023-04-06T07:20:47.928Z,100322.06
2023-04-06T07:23:16.188Z,100320.38
2023-04-06T07:25:45.748Z,100316.97
2023-04-06T07:28:14.779Z,100312.22
2023-04-06T07:30:44.491Z,100304.50
2023-04-06T07:33:12.305Z,100302.25
2023-04-06T07:35:40.465Z,100313.06
2023-04-06T07:38:10.076Z,100314.41
2023-04-06T07:40:36.863Z,100309.25
2023-04-06T07:43:10.432Z,100300.97
2023-04-06T07:45:42.568Z,100305.56
2023-04-06T07:48:10.243Z,100301.59
2023-04-06T07:50:37.439Z,100301.19
2023-04-06T07:53:05.174Z,100305.53
2023-04-06T07:55:31.829Z,100304.91
2023-04-06T07:57:58.478Z,100300.25
2023-04-06T08:00:28.075Z,100299.47
2023-04-06T08:02:54.906Z,100301.28
2023-04-06T08:05:21.675Z,100305.28
2023-04-06T08:07:50.839Z,100298.91
2023-04-06T08:10:17.633Z,100297.88
2023-04-06T08:12:48.226Z,100303.06
2023-04-06T08:15:19.867Z,100294.00
2023-04-06T08:17:55.488Z,100293.00
2023-04-06T08:20:25.088Z,100293.81
2023-04-06T08:22:53.650Z,100293.25
2023-04-06T08:25:20.749Z,100287.53
2023-04-06T08:27:47.401Z,100279.34
2023-04-06T08:30:17.073Z,100281.41
2023-04-06T08:32:47.620Z,100278.72
2023-04-06T08:35:19.815Z,100277.59
2023-04-06T08:37:52.057Z,100278.41
2023-04-06T08:40:22.058Z,100273.41
2023-04-06T08:42:51.348Z,100264.03
2023-04-06T08:45:22.450Z,100260.94
2023-04-06T08:47:55.516Z,100260.88
2023-04-06T08:50:25.608Z,100262.00
2023-04-06T08:52:59.798Z,100255.81
2023-04-06T08:55:27.071Z,100255.72
2023-04-06T08:57:56.192Z,100257.56
2023-04-06T09:00:27.920Z,100253.22
2023-04-06T09:02:55.195Z,100262.03
2023-04-06T09:05:22.298Z,100250.19
2023-04-06T09:07:52.434Z,100255.16
2023-04-06T09:10:24.565Z,100253.78
2023-04-06T09:12:51.998Z,100251.28
2023-04-06T09:15:24.403Z,100240.19
2023-04-06T09:17:55.906Z,100240.94
2023-04-06T09:20:30.373Z,100231.41
2023-04-06T09:23:37.824Z,100231.06
2023-04-06T09:26:10.013Z,100226.16
2023-04-06T09:28:51.429Z,100213.56
2023-04-06T09:31:26.896Z,100218.25
2023-04-06T09:33:54.284Z,100220.53
2023-04-06T09:36:30.380Z,100222.97
2023-04-06T09:38:58.466Z,100221.88
2023-04-06T09:41:56.578Z,100217.38
2023-04-06T09:44:25.212Z,100219.75
2023-04-06T09:47:00.868Z,100217.69
2023-04-06T09:49:29.797Z,100208.41
2023-04-06T09:52:21.848Z,100205.28
2023-04-06T09:54:55.789Z,100213.59
2023-04-06T09:57:40.503Z,100207.88
2023-04-06T10:00:25.217Z,100206.22
2023-04-06T10:03:02.091Z,100196.72
2023-04-06T10:05:50.192Z,100196.22
2023-04-06T10:08:44.880Z,100198.03
2023-04-06T10:11:14.483Z,100184.34
2023-04-06T10:13:47.878Z,100181.69
2023-04-06T10:16:20.389Z,100181.91
2023-04-06T10:18:56.627Z,100173.22
2023-04-06T10:21:25.210Z,100180.97
2023-04-06T10:23:58.427Z,100178.94
2023-04-06T10:26:28.061Z,100171.28
2023-04-06T10:28:55.812Z,100164.53
2023-04-06T10:31:27.675Z,100162.91
2023-04-06T10:33:59.646Z,100164.34
2023-04-06T10:36:29.659Z,100158.06
2023-04-06T10:39:02.370Z,100166.94
2023-04-06T10:41:38.233Z,100160.00
2023-04-06T10:44:05.144Z,100157.19
2023-04-06T10:46:32.722Z,100157.63
2023-04-06T10:49:01.930Z,100152.63
2023-04-06T10:51:29.192Z,100153.16
2023-04-06T10:53:56.237Z,100147.81
2023-04-06T10:56:26.758Z,100153.00
2023-04-06T10:58:54.078Z,100150.03
2023-04-06T11:01:21.450Z,100146.81
2023-04-06T11:03:48.871Z,100143.88
2023-04-06T11:06:19.144Z,100149.44
2023-04-06T11:08:45.881Z,100148.69
2023-04-06T11:11:22.305Z,100149.94
2023-04-06T11:13:52.334Z,100141.59
2023-04-06T11:16:26.223Z,100139.91
2023-04-06T11:19:05.401Z,100140.91
2023-04-06T11:21:44.242Z,100134.72
2023-04-06T11:24:12.100Z,100130.88
2023-04-06T11:26:42.179Z,100126.81
2023-04-06T11:29:11.139Z,100126.84
2023-04-06T11:32:01.105Z,100126.06
2023-04-06T11:34:29.379Z,100119.44
2023-04-06T11:36:57.908Z,100121.41
2023-04-06T11:39:25.877Z,100105.88
2023-04-06T11:41:53.123Z,100113.06
2023-04-06T11:44:41.075Z,100112.16
2023-04-06T11:47:08.300Z,100116.13
2023-04-06T11:49:38.329Z,100116.22
2023-04-06T11:52:14.899Z,100108.38
2023-04-06T11:54:42.510Z,100109.34
2023-04-06T11:57:09.390Z,100108.34
2023-04-06T11:59:36.898Z,100105.31
2023-04-06T12:02:06.633Z,100108.53
2023-04-06T12:04:33.412Z,100106.56
2023-04-06T12:07:00.245Z,100106.78
2023-04-06T12:09:27.054Z,100107.16
2023-04-06T12:11:53.688Z,100105.09
2023-04-06T12:14:25.106Z,100102.59
2023-04-06T12:16:51.974Z,100106.69
2023-04-06T12:19:18.594Z,100106.13
2023-04-06T12:21:45.398Z,100099.88
2023-04-06T12:24:12.045Z,100101.66
2023-04-06T12:26:42.500Z,100099.22
2023-04-06T12:29:09.457Z,100097.38
2023-04-06T12:31:40.145Z,100094.75
2023-04-06T12:34:09.350Z,100095.66
2023-04-06T12:36:36.247Z,100097.63
2023-04-06T12:39:07.848Z,100093.16
2023-04-06T12:41:37.156Z,100093.22
2023-04-06T12:44:03.913Z,100084.25
2023-04-06T12:46:36.587Z,100094.19
2023-04-06T12:49:04.361Z,100085.84
2023-04-06T12:51:35.972Z,100089.78
2023-04-06T12:54:05.410Z,100086.88
2023-04-06T12:56:37.507Z,100083.94
2023-04-06T12:59:04.375Z,100082.66
2023-04-06T13:01:31.285Z,100097.25
2023-04-06T13:04:00.933Z,100097.47
2023-04-06T13:06:30.313Z,100098.03
2023-04-06T13:08:57.021Z,100092.34
2023-04-06T13:11:28.826Z,100096.69
2023-04-06T13:13:57.906Z,100094.28
2023-04-06T13:16:27.109Z,100087.97
2023-04-06T13:18:56.244Z,100084.81
2023-04-06T13:21:26.163Z,100082.25
2023-04-06T13:23:55.750Z,100079.66
2023-04-06T13:26:25.036Z,100075.13
2023-04-06T13:28:51.689Z,100094.75
2023-04-06T13:31:18.488Z,100089.63
2023-04-06T13:33:47.641Z,100090.28
2023-04-06T13:36:18.242Z,100085.09
2023-04-06T13:38:47.809Z,100086.06
2023-04-06T13:41:21.967Z,100097.69
2023-04-06T13:43:48.841Z,100089.53
2023-04-06T13:46:15.706Z,100091.00
2023-04-06T13:48:42.728Z,100082.34
2023-04-06T13:51:12.995Z,100077.72
2023-04-06T13:53:41.590Z,100064.38
2023-04-06T13:56:08.654Z,100065.16
2023-04-06T13:58:37.104Z,100077.00
2023-04-06T14:01:07.393Z,100070.06
2023-04-06T14:03:34.644Z,100070.63
2023-04-06T14:06:15.640Z,100071.75
2023-04-06T14:08:49.792Z,100073.13
2023-04-06T14:11:18.832Z,100069.28
2023-04-06T14:13:45.870Z,100068.31
2023-04-06T14:16:12.887Z,100070.16
2023-04-06T14:18:39.761Z,100067.91
2023-04-06T14:21:08.872Z,100066.72
2023-04-06T14:23:38.090Z,100058.63
2023-04-06T14:26:08.744Z,100071.41
2023-04-06T14:28:38.425Z,100073.06
2023-04-06T14:31:14.379Z,100080.59
2023-04-06T14:33:41.617Z,100077.22
2023-04-06T14:36:08.666Z,100076.91
2023-04-06T14:38:35.577Z,100083.34
2023-04-06T14:41:02.311Z,100084.34
2023-04-06T14:43:31.594Z,100088.53
2023-04-06T14:46:03.936Z,100093.06
2023-04-06T14:48:30.754Z,100091.34
2023-04-06T14:50:57.620Z,100095.19
2023-04-06T14:53:24.921Z,100102.28
2023-04-06T14:55:52.412Z,100104.00
2023-04-06T14:58:25.405Z,100099.13
2023-04-06T15:01:01.602Z,100108.25
2023-04-06T15:03:28.566Z,100119.44
2023-04-06T15:05:55.986Z,100120.34
2023-04-06T15:08:25.125Z,100121.31
2023-04-06T15:10:52.582Z,100123.75
2023-04-06T15:13:19.363Z,100122.06
2023-04-06T15:15:46.222Z,100118.22
2023-04-06T15:18:12.930Z,100114.34
2023-04-06T15:20:40.076Z,100119.88
2023-04-06T15:23:06.695Z,100134.09
2023-04-06T15:25:33.357Z,100128.50
2023-04-06T15:28:00.542Z,100121.13
2023-04-06T15:30:31.226Z,100121.59
2023-04-06T15:33:04.894Z,100123.78
2023-04-06T15:35:35.582Z,100129.47
2023-04-06T15:38:02.905Z,100126.84
2023-04-06T15:40:29.464Z,100132.38
2023-04-06T15:42:58.647Z,100121.44
2023-04-06T15:45:25.356Z,100124.16
2023-04-06T15:47:51.959Z,100122.47
2023-04-06T15:50:19.754Z,100126.66
2023-04-06T15:52:48.864Z,100131.06
2023-04-06T15:55:15.568Z,100120.34
2023-04-06T15:57:44.697Z,100127.34
2023-04-06T16:00:11.576Z,100123.56
2023-04-06T16:02:38.402Z,100126.00
2023-04-06T16:05:10.268Z,100122.91
2023-04-06T16:07:37.107Z,100120.00
2023-04-06T16:10:07.281Z,100124.00
2023-04-06T16:12:34.189Z,100117.72
2023-04-06T16:15:03.327Z,100115.91
2023-04-06T16:17:30.173Z,100127.31
2023-04-06T16:19:59.146Z,100125.97
2023-04-06T16:22:28.924Z,100126.56
2023-04-06T16:24:55.726Z,100122.97
2023-04-06T16:27:22.515Z,100136.81
2023-04-06T16:29:51.347Z,100138.59
2023-04-06T16:32:20.465Z,100142.53
2023-04-06T16:34:47.632Z,100142.72
2023-04-06T16:37:16.482Z,100142.34
2023-04-06T16:39:48.140Z,100147.34
2023-04-06T16:42:19.595Z,100147.94
2023-04-06T16:44:48.757Z,100148.28
2023-04-06T16:47:16.629Z,100160.53
2023-04-06T16:49:48.664Z,100156.19
2023-04-06T16:52:15.931Z,100152.75
2023-04-06T16:54:42.529Z,100159.25
2023-04-06T16:57:09.258Z,100165.50
2023-04-06T16:59:39.022Z,100171.69
2023-04-06T17:02:05.711Z,100168.91
2023-04-06T17:04:32.559Z,100170.53
2023-04-06T17:06:59.242Z,100171.03
2023-04-06T17:09:26.016Z,100176.72
2023-04-06T17:11:58.117Z,100168.16
2023-04-06T17:14:29.701Z,100176.06
2023-04-06T17:16:59.581Z,100168.59
2023-04-06T17:19:27.073Z,100176.19
2023-04-06T17:21:56.129Z,100172.50
2023-04-06T17:24:24.955Z,100170.81
2023-04-06T17:26:54.125Z,100175.09
2023-04-06T17:29:22.930Z,100182.19
2023-04-06T17:31:51.858Z,100186.66
2023-04-06T17:34:18.550Z,100194.91
2023-04-06T17:36:50.129Z,100193.13
2023-04-06T17:39:17.096Z,100201.56
2023-04-06T17:41:43.965Z,100200.03
2023-04-06T17:44:10.719Z,100205.09
2023-04-06T17:46:39.839Z,100215.63
2023-04-06T17:49:08.479Z,100208.94
2023-04-06T17:51:38.833Z,100211.03
2023-04-06T17:54:05.830Z,100218.13
2023-04-06T17:56:32.437Z,100223.84
2023-04-06T17:59:01.341Z,100215.31
2023-04-06T18:01:28.050Z,100220.59
2023-04-06T18:03:55.038Z,100216.28
2023-04-06T18:06:25.670Z,100213.28
2023-04-06T18:08:53.199Z,100207.59
2023-04-06T18:11:21.617Z,100213.63
2023-04-06T18:13:48.652Z,100211.84
2023-04-06T18:16:20.157Z,100213.38
2023-04-06T18:18:47.086Z,100217.34
2023-04-06T18:21:13.827Z,100211.19
2023-04-06T18:23:40.593Z,100218.25
2023-04-06T18:26:10.422Z,100212.94
2023-04-06T18:28:39.425Z,100225.47
2023-04-06T18:31:06.077Z,100225.28
2023-04-06T18:33:33.802Z,100226.72
2023-04-06T18:36:00.467Z,100225.13
2023-04-06T18:38:29.777Z,100229.63
2023-04-06T18:40:56.533Z,100227.13
2023-04-06T18:43:28.552Z,100227.84
2023-04-06T18:45:55.782Z,100232.44
2023-04-06T18:48:24.914Z,100226.72
2023-04-06T18:50:57.722Z,100227.13
2023-04-06T18:53:24.312Z,100222.59
2023-04-06T18:55:51.908Z,100225.44
2023-04-06T18:58:18.580Z,100229.94
2023-04-06T19:00:45.411Z,100227.47
2023-04-06T19:03:14.917Z,100223.69
2023-04-06T19:05:42.083Z,100221.13
2023-04-06T19:08:08.827Z,100222.31
2023-04-06T19:10:36.574Z,100218.75
2023-04-06T19:13:03.708Z,100214.97
2023-04-06T19:15:30.438Z,100215.88
2023-04-06T19:18:02.014Z,100218.19
2023-04-06T19:20:28.604Z,100220.25
2023-04-06T19:22:58.044Z,100225.63
2023-04-06T19:25:24.803Z,100208.53
2023-04-06T19:27:54.251Z,100208.84
2023-04-06T19:30:20.976Z,100211.59
2023-04-06T19:32:50.069Z,100208.25
2023-04-06T19:35:16.713Z,100202.06
2023-04-06T19:37:46.483Z,100209.69
2023-04-06T19:40:16.971Z,100202.69
2023-04-06T19:42:43.590Z,100195.94
2023-04-06T19:45:11.298Z,100201.56
2023-04-06T19:47:40.436Z,100199.38
2023-04-06T19:50:09.000Z,100190.06
2023-04-06T19:52:36.622Z,100191.59
2023-04-06T19:55:04.036Z,100183.88
2023-04-06T19:57:33.153Z,100186.84
2023-04-06T20:00:09.728Z,100189.91
2023-04-06T20:02:36.388Z,100194.91
2023-04-06T20:05:05.458Z,100186.69
2023-04-06T20:07:32.103Z,100200.50
2023-04-06T20:09:58.768Z,100190.16
2023-04-06T20:12:25.498Z,100201.81
2023-04-06T20:14:54.766Z,100195.69
2023-04-06T20:17:24.198Z,100200.34
2023-04-06T20:19:54.035Z,100193.44
2023-04-06T20:22:23.393Z,100197.94
2023-04-06T20:24:52.501Z,100198.59
2023-04-06T20:27:22.267Z,100196.16
2023-04-06T20:29:49.006Z,100202.28
2023-04-06T20:32:20.652Z,100200.66
2023-04-06T20:34:47.952Z,100193.59
2023-04-06T20:37:17.894Z,100188.75
2023-04-06T20:39:48.368Z,100183.47
2023-04-06T20:42:15.109Z,100184.44
2023-04-06T20:44:41.841Z,100180.94
2023-04-06T20:47:10.715Z,100181.69
2023-04-06T20:49:40.205Z,100183.16
2023-04-06T20:52:09.540Z,100179.75
2023-04-06T20:54:36.284Z,100180.16
2023-04-06T20:57:02.993Z,100179.34
2023-04-06T20:59:29.779Z,100172.13
2023-04-06T21:01:56.634Z,100176.41
2023-04-06T21:04:23.520Z,100177.06
2023-04-06T21:06:50.469Z,100181.91
2023-04-06T21:09:20.202Z,100180.06
2023-04-06T21:11:47.296Z,100184.09
2023-04-06T21:14:19.525Z,100181.22
2023-04-06T21:16:47.264Z,100172.69
2023-04-06T21:19:13.823Z,100175.41
2023-04-06T21:21:43.472Z,100176.06
2023-04-06T21:24:12.426Z,100178.47
2023-04-06T21:26:39.088Z,100182.50
2023-04-06T21:29:05.842Z,100184.28
2023-04-06T21:31:36.515Z,100174.91
2023-04-06T21:34:03.259Z,100178.97
2023-04-06T21:36:29.989Z,100167.94
2023-04-06T21:38:56.586Z,100168.31
2023-04-06T21:41:23.185Z,100170.97
2023-04-06T21:43:49.809Z,100168.47
2023-04-06T21:46:16.487Z,100164.81
2023-04-06T21:48:43.096Z,100162.00
2023-04-06T21:51:15.986Z,100151.75
2023-04-06T21:53:44.932Z,100153.44
2023-04-06T21:56:13.988Z,100147.28
2023-04-06T21:58:41.810Z,100152.31
2023-04-06T22:01:11.858Z,100138.56
2023-04-06T22:03:39.061Z,100130.84
2023-04-06T22:06:06.162Z,100131.00
2023-04-06T22:08:34.297Z,100122.50
2023-04-06T22:11:01.374Z,100123.22
2023-04-06T22:13:30.105Z,100123.97
2023-04-06T22:15:56.745Z,100128.34
2023-04-06T22:18:26.095Z,100122.69
2023-04-06T22:20:52.687Z,100117.22
2023-04-06T22:23:21.162Z,100116.16
2023-04-06T22:25:48.077Z,100114.94
2023-04-06T22:28:14.743Z,100116.84
2023-04-06T22:30:41.895Z,100115.81
2023-04-06T22:33:11.149Z,100116.06
2023-04-06T22:35:40.200Z,100106.59
2023-04-06T22:38:06.747Z,100110.16
2023-04-06T22:40:33.472Z,100117.44
2023-04-06T22:43:02.426Z,100120.56
2023-04-06T22:45:29.135Z,100120.00
2023-04-06T22:47:55.849Z,100113.97
2023-04-06T22:50:22.748Z,100107.56
2023-04-06T22:52:49.461Z,100106.75
2023-04-06T22:55:16.577Z,100107.47
2023-04-06T22:57:43.238Z,100112.56
2023-04-06T23:00:10.193Z,100106.19
2023-04-06T23:02:36.912Z,100112.31
2023-04-06T23:05:06.271Z,100112.13
2023-04-06T23:07:32.987Z,100112.94
2023-04-06T23:09:59.665Z,100108.97
2023-04-06T23:12:26.486Z,100110.22
2023-04-06T23:14:53.285Z,100102.00
2023-04-06T23:17:22.315Z,100101.75
2023-04-06T23:19:48.928Z,100106.03
2023-04-06T23:22:15.634Z,100096.69
2023-04-06T23:24:44.464Z,100098.31
2023-04-06T23:27:13.774Z,100098.03
2023-04-06T23:29:40.839Z,100098.00
2023-04-06T23:32:07.594Z,100096.25
2023-04-06T23:34:34.342Z,100097.56
2023-04-06T23:37:02.951Z,100102.06
2023-04-06T23:39:30.085Z,100098.75
2023-04-06T23:41:57.828Z,100094.25
2023-04-06T23:44:24.827Z,100100.53
2023-04-06T23:46:52.150Z,100091.91
2023-04-06T23:49:18.910Z,100088.38
2023-04-06T23:51:48.046Z,100091.47
2023-04-06T23:54:16.978Z,100088.88
2023-04-06T23:56:43.558Z,100080.75
2023-04-06T23:59:10.470Z,100082.13
